createdAt,value
2023-01-04T00:00:06.379Z,3.05
2023-01-04T00:05:09.986Z,2.45
2023-01-04T00:10:12.786Z,4.25
2023-01-04T00:15:16.954Z,2.47
2023-01-04T00:20:19.699Z,4.60
2023-01-04T00:25:22.448Z,4.28
2023-01-04T00:30:26.618Z,9.77
2023-01-04T00:35:45.357Z,3.75
2023-01-04T00:40:48.987Z,5.60
2023-01-04T00:45:53.717Z,4.65
2023-01-04T00:50:56.610Z,7.28
2023-01-04T00:56:02.500Z,5.65
2023-01-04T01:01:08.298Z,2.65
2023-01-04T01:06:12.267Z,12.32
2023-01-04T01:11:15.287Z,5.15
2023-01-04T01:16:44.388Z,4.85
2023-01-04T01:21:44.752Z,5.35
2023-01-04T01:26:47.627Z,3.83
2023-01-04T01:31:51.924Z,5.25
2023-01-04T01:36:54.821Z,2.97
2023-01-04T01:41:57.641Z,5.78
2023-01-04T01:47:02.422Z,3.67
2023-01-04T01:52:07.958Z,5.32
2023-01-04T01:57:15.161Z,2.33
2023-01-04T02:02:19.475Z,11.50
2023-01-04T02:07:25.734Z,3.30
2023-01-04T02:12:28.579Z,5.28
2023-01-04T02:17:39.746Z,4.47
2023-01-04T02:23:04.925Z,3.15
2023-01-04T02:28:17.616Z,4.05
2023-01-04T02:38:39.172Z,1.67
2023-01-04T02:44:07.717Z,5.68
2023-01-04T02:49:29.438Z,7.30
2023-01-04T02:54:33.903Z,6.13
2023-01-04T02:59:51.659Z,3.63
2023-01-04T03:05:23.889Z,5.03
2023-01-04T03:10:36.930Z,1.92
2023-01-04T03:15:43.864Z,5.45
2023-01-04T03:20:50.473Z,34.13
2023-01-04T03:26:16.591Z,9.25
2023-01-04T03:31:41.965Z,5.55
2023-01-04T03:36:56.023Z,8.43
2023-01-04T03:42:23.036Z,2.50
2023-01-04T03:47:47.966Z,1.27
2023-01-04T03:52:54.490Z,2.78
2023-01-04T03:57:59.505Z,3.47
2023-01-04T04:03:08.148Z,3.72
2023-01-04T04:08:30.365Z,6.90
2023-01-04T04:13:33.166Z,4.35
2023-01-04T04:18:35.988Z,3.70
2023-01-04T04:23:40.098Z,4.20
2023-01-04T04:28:43.449Z,2.67
2023-01-04T04:33:46.231Z,6.20
2023-01-04T04:38:50.366Z,4.53
2023-01-04T04:43:53.765Z,3.53
2023-01-04T04:48:56.596Z,2.05
2023-01-04T04:54:01.115Z,5.10
2023-01-04T04:59:04.020Z,3.38
2023-01-04T05:04:07.368Z,3.92
2023-01-04T05:09:11.766Z,1.65
2023-01-04T05:14:14.952Z,2.38
2023-01-04T05:19:17.868Z,2.40
2023-01-04T05:24:22.115Z,3.08
2023-01-04T05:29:44.400Z,1.45
2023-01-04T05:34:47.125Z,0.40
2023-01-04T05:39:51.209Z,1.27
2023-01-04T05:44:54.727Z,0.90
2023-01-04T05:49:57.606Z,3.13
2023-01-04T05:55:02.074Z,2.30
2023-01-04T06:00:06.968Z,1.02
2023-01-04T06:05:15.766Z,1.67
2023-01-04T06:10:20.428Z,0.63
2023-01-04T06:15:23.238Z,2.13
2023-01-04T06:20:26.108Z,3.03
2023-01-04T06:25:30.217Z,1.73
2023-01-04T06:30:33.058Z,0.80
2023-01-04T06:35:36.065Z,0.98
2023-01-04T06:40:40.250Z,0.63
2023-01-04T06:45:43.563Z,0.77
2023-01-04T06:50:46.504Z,0.65
2023-01-04T06:55:50.676Z,3.80
2023-01-04T07:00:54.087Z,1.15
2023-01-04T07:05:56.840Z,1.15
2023-01-04T07:11:01.009Z,1.30
2023-01-04T07:16:03.800Z,1.25
2023-01-04T07:21:07.130Z,0.98
2023-01-04T07:26:11.231Z,1.25
2023-01-04T07:31:14.065Z,1.23
2023-01-04T07:36:16.860Z,1.05
2023-01-04T07:41:20.969Z,1.00
2023-01-04T07:46:23.786Z,0.80
2023-01-04T07:51:27.345Z,1.27
2023-01-04T07:56:31.475Z,0.80
2023-01-04T08:01:35.319Z,0.80
2023-01-04T08:06:39.863Z,2.92
2023-01-04T08:11:43.997Z,1.95
2023-01-04T08:16:46.800Z,1.00
2023-01-04T08:21:49.978Z,2.55
2023-01-04T08:26:54.218Z,1.80
2023-01-04T08:31:56.977Z,1.55
2023-01-04T08:36:59.799Z,1.15
2023-01-04T08:42:16.092Z,1.60
2023-01-04T08:47:23.474Z,0.80
2023-01-04T08:52:26.698Z,1.50
2023-01-04T08:57:30.804Z,0.50
2023-01-04T09:02:33.766Z,0.90
2023-01-04T09:07:36.719Z,0.90
2023-01-04T09:12:42.956Z,1.83
2023-01-04T09:18:05.128Z,1.90
2023-01-04T09:23:08.956Z,1.20
2023-01-04T09:28:13.142Z,0.63
2023-01-04T09:33:15.984Z,1.92
2023-01-04T09:38:18.727Z,0.70
2023-01-04T09:43:26.145Z,1.23
2023-01-04T09:48:32.799Z,0.77
2023-01-04T09:53:40.729Z,1.23
2023-01-04T09:58:45.364Z,0.95
2023-01-04T10:03:56.439Z,2.20
2023-01-04T10:09:03.705Z,1.25
2023-01-04T10:14:23.764Z,1.63
2023-01-04T10:25:18.763Z,2.35
2023-01-04T10:30:34.136Z,1.70
2023-01-04T10:35:37.098Z,1.42
2023-01-04T10:40:41.404Z,1.33
2023-01-04T10:45:55.061Z,1.30
2023-01-04T10:51:05.159Z,1.10
2023-01-04T10:56:25.751Z,2.63
2023-01-04T11:01:36.841Z,1.30
2023-01-04T11:06:44.515Z,1.25
2023-01-04T11:11:48.591Z,1.83
2023-01-04T11:16:56.554Z,1.48
2023-01-04T11:22:06.125Z,1.58
2023-01-04T11:27:20.875Z,1.70
2023-01-04T11:32:36.616Z,2.20
2023-01-04T11:37:41.559Z,1.63
2023-01-04T11:42:45.245Z,1.77
2023-01-04T11:47:52.165Z,2.38
2023-01-04T11:52:55.078Z,2.47
2023-01-04T11:58:08.004Z,1.90
2023-01-04T12:03:18.367Z,2.50
2023-01-04T12:11:34.755Z,1.83
2023-01-04T12:16:47.315Z,3.88
2023-01-04T12:21:52.525Z,1.95
2023-01-04T12:26:57.351Z,2.65
2023-01-04T12:32:33.281Z,3.10
2023-01-04T12:37:49.770Z,1.88
2023-01-04T12:43:24.644Z,3.55
2023-01-04T12:49:02.884Z,2.75
2023-01-04T12:54:06.530Z,4.57
2023-01-04T12:59:29.657Z,1.67
2023-01-04T13:04:41.318Z,2.15
2023-01-04T13:09:51.724Z,2.45
2023-01-04T13:15:04.121Z,3.08
2023-01-04T13:20:20.439Z,3.20
2023-01-04T13:25:25.286Z,3.55
2023-01-04T13:30:38.468Z,4.60
2023-01-04T13:35:41.306Z,2.83
2023-01-04T13:40:49.449Z,3.60
2023-01-04T13:46:06.898Z,2.38
2023-01-04T13:51:15.933Z,7.30
2023-01-04T13:56:21.620Z,2.88
2023-01-04T14:01:28.795Z,3.85
2023-01-04T14:06:34.174Z,3.47
2023-01-04T14:12:09.908Z,3.95
2023-01-04T14:17:23.241Z,4.30
2023-01-04T14:22:42.907Z,4.00
2023-01-04T14:27:45.801Z,3.53
2023-01-04T14:32:57.371Z,4.60
2023-01-04T14:38:04.453Z,4.78
2023-01-04T14:43:35.918Z,4.40
2023-01-04T14:48:40.203Z,3.75
2023-01-04T14:53:43.143Z,4.40
2023-01-04T14:58:46.337Z,3.08
2023-01-04T15:03:50.600Z,4.78
2023-01-04T15:08:53.466Z,7.15
2023-01-04T15:13:56.585Z,2.45
2023-01-04T15:19:00.851Z,5.07
2023-01-04T15:24:03.695Z,4.60
2023-01-04T15:29:08.367Z,3.53
2023-01-04T15:34:14.704Z,5.95
2023-01-04T15:39:17.566Z,1.77
2023-01-04T15:44:20.460Z,3.65
2023-01-04T15:49:24.705Z,5.85
2023-01-04T15:54:28.246Z,7.03
2023-01-04T15:59:31.235Z,4.70
2023-01-04T16:04:36.480Z,2.45
2023-01-04T16:09:39.345Z,3.50
2023-01-04T16:14:42.118Z,3.95
2023-01-04T16:19:46.423Z,2.75
2023-01-04T16:30:14.957Z,4.82
2023-01-04T16:35:19.341Z,4.75
2023-01-04T16:40:22.125Z,5.15
2023-01-04T16:45:24.892Z,3.97
2023-01-04T16:50:29.065Z,4.78
2023-01-04T16:55:31.957Z,3.90
2023-01-04T17:00:34.845Z,3.47
2023-01-04T17:05:41.436Z,4.97
2023-01-04T17:10:44.506Z,3.58
2023-01-04T17:15:47.283Z,4.65
2023-01-04T17:21:06.091Z,3.45
2023-01-04T17:26:20.623Z,14.95
2023-01-04T17:31:25.187Z,3.92
2023-01-04T17:36:29.714Z,8.40
2023-01-04T17:41:32.814Z,2.63
2023-01-04T17:46:39.022Z,5.78
2023-01-04T17:51:43.223Z,5.70
2023-01-04T17:56:46.062Z,11.50
2023-01-04T18:01:49.136Z,8.32
2023-01-04T18:06:53.393Z,11.20
2023-01-04T18:11:56.189Z,5.80
2023-01-04T18:16:59.328Z,6.72
2023-01-04T18:22:04.757Z,8.43
2023-01-04T18:27:25.254Z,10.18
2023-01-04T18:32:28.860Z,7.70
2023-01-04T18:37:33.028Z,14.60
2023-01-04T18:42:35.891Z,9.88
2023-01-04T18:47:38.659Z,13.57
2023-01-04T18:52:42.829Z,11.98
2023-01-04T18:57:45.604Z,7.15
2023-01-04T19:02:48.557Z,10.93
2023-01-04T19:07:52.909Z,16.05
2023-01-04T19:12:55.650Z,10.18
2023-01-04T19:17:58.422Z,7.43
2023-01-04T19:23:02.571Z,8.13
2023-01-04T19:28:06.407Z,11.15
2023-01-04T19:33:10.846Z,9.60
2023-01-04T19:38:16.396Z,15.02
2023-01-04T19:43:19.166Z,24.35
2023-01-04T19:48:23.659Z,16.75
2023-01-04T19:53:27.843Z,18.63
2023-01-04T19:58:31.077Z,21.42
2023-01-04T20:03:34.450Z,14.52
2023-01-04T20:08:39.114Z,19.35
2023-01-04T20:13:42.129Z,17.80
2023-01-04T20:18:44.925Z,26.33
2023-01-04T20:23:49.112Z,9.20
2023-01-04T20:28:52.037Z,28.00
2023-01-04T20:33:56.676Z,22.60
2023-01-04T20:39:02.924Z,6.25
2023-01-04T20:44:06.050Z,11.90
2023-01-04T20:49:09.568Z,15.30
2023-01-04T20:54:13.783Z,10.30
2023-01-04T20:59:16.572Z,11.18
2023-01-04T21:04:19.342Z,16.30
2023-01-04T21:09:23.528Z,19.50
2023-01-04T21:14:26.392Z,13.15
2023-01-04T21:19:29.320Z,17.83
2023-01-04T21:24:34.493Z,11.63
2023-01-04T21:29:37.393Z,25.67
2023-01-04T21:34:40.240Z,23.45
2023-01-04T21:39:44.612Z,15.05
2023-01-04T21:44:47.440Z,23.25
2023-01-04T21:49:50.844Z,18.00
2023-01-04T21:54:55.394Z,29.05
2023-01-04T21:59:58.157Z,24.30
2023-01-04T22:05:01.769Z,24.23
2023-01-04T22:10:06.766Z,24.10
2023-01-04T22:15:10.404Z,24.05
2023-01-04T22:20:13.157Z,21.42
2023-01-04T22:25:17.476Z,34.20
2023-01-04T22:30:20.265Z,21.35
2023-01-04T22:35:23.442Z,24.15
2023-01-04T22:40:27.584Z,16.25
2023-01-04T22:45:30.581Z,15.50
2023-01-04T22:50:33.329Z,17.92
2023-01-04T22:56:17.111Z,22.45
2023-01-04T23:01:04.907Z,26.75
2023-01-04T23:06:08.465Z,38.28
2023-01-04T23:11:15.653Z,33.08
2023-01-04T23:16:18.777Z,16.60
2023-01-04T23:21:21.571Z,34.88
2023-01-04T23:26:27.364Z,25.40
2023-01-04T23:31:32.760Z,29.95
2023-01-04T23:36:37.283Z,26.20
2023-01-04T23:41:47.991Z,37.95
2023-01-04T23:46:53.564Z,29.25
2023-01-04T23:51:57.555Z,27.42
2023-01-04T23:57:03.776Z,31.02
